sensor_id;sensor_type;location;lat;lon;timestamp;temperature;humidity
46139;DHT22;32398;49.112;8.598;2023-04-01T00:02:20;10.60;91.00
46139;DHT22;32398;49.112;8.598;2023-04-01T00:04:46;10.50;91.00
46139;DHT22;32398;49.112;8.598;2023-04-01T00:07:14;10.50;91.00
46139;DHT22;32398;49.112;8.598;2023-04-01T00:09:43;10.50;91.00
46139;DHT22;32398;49.112;8.598;2023-04-01T00:12:10;10.50;91.00
46139;DHT22;32398;49.112;8.598;2023-04-01T00:14:36;10.50;91.00
46139;DHT22;32398;49.112;8.598;2023-04-01T00:17:05;10.60;91.00
46139;DHT22;32398;49.112;8.598;2023-04-01T00:19:31;10.50;91.00
46139;DHT22;32398;49.112;8.598;2023-04-01T00:21:58;10.50;91.00
46139;DHT22;32398;49.112;8.598;2023-04-01T00:24:26;10.50;91.00
46139;DHT22;32398;49.112;8.598;2023-04-01T00:26:52;10.50;91.00
46139;DHT22;32398;49.112;8.598;2023-04-01T00:29:19;10.40;91.00
46139;DHT22;32398;49.112;8.598;2023-04-01T00:31:46;10.50;91.10
46139;DHT22;32398;49.112;8.598;2023-04-01T00:34:13;10.50;91.10
46139;DHT22;32398;49.112;8.598;2023-04-01T00:36:40;10.40;91.40
46139;DHT22;32398;49.112;8.598;2023-04-01T00:39:06;10.50;91.10
46139;DHT22;32398;49.112;8.598;2023-04-01T00:41:34;10.50;91.10
46139;DHT22;32398;49.112;8.598;2023-04-01T00:44:17;10.50;91.10
46139;DHT22;32398;49.112;8.598;2023-04-01T00:46:44;10.50;91.10
46139;DHT22;32398;49.112;8.598;2023-04-01T00:49:11;10.40;91.10
46139;DHT22;32398;49.112;8.598;2023-04-01T00:51:38;10.40;91.10
46139;DHT22;32398;49.112;8.598;2023-04-01T00:54:05;10.40;91.10
46139;DHT22;32398;49.112;8.598;2023-04-01T00:56:34;10.40;91.20
46139;DHT22;32398;49.112;8.598;2023-04-01T00:59:02;10.40;91.20
46139;DHT22;32398;49.112;8.598;2023-04-01T01:01:31;10.40;91.20
46139;DHT22;32398;49.112;8.598;2023-04-01T01:03:58;10.40;91.20
46139;DHT22;32398;49.112;8.598;2023-04-01T01:06:28;10.40;91.20
46139;DHT22;32398;49.112;8.598;2023-04-01T01:11:41;10.40;91.20
46139;DHT22;32398;49.112;8.598;2023-04-01T01:14:10;10.40;91.20
46139;DHT22;32398;49.112;8.598;2023-04-01T01:16:40;10.40;91.20
46139;DHT22;32398;49.112;8.598;2023-04-01T01:19:10;10.40;91.20
46139;DHT22;32398;49.112;8.598;2023-04-01T01:24:27;10.40;91.30
46139;DHT22;32398;49.112;8.598;2023-04-01T01:27:01;10.40;91.30
46139;DHT22;32398;49.112;8.598;2023-04-01T01:29:39;10.40;91.30
46139;DHT22;32398;49.112;8.598;2023-04-01T01:32:09;10.40;91.30
46139;DHT22;32398;49.112;8.598;2023-04-01T01:34:40;10.40;91.30
46139;DHT22;32398;49.112;8.598;2023-04-01T01:37:13;10.40;91.30
46139;DHT22;32398;49.112;8.598;2023-04-01T01:39:41;10.40;91.40
46139;DHT22;32398;49.112;8.598;2023-04-01T01:42:09;10.40;91.40
46139;DHT22;32398;49.112;8.598;2023-04-01T01:44:37;10.40;91.40
46139;DHT22;32398;49.112;8.598;2023-04-01T01:47:04;10.30;91.40
46139;DHT22;32398;49.112;8.598;2023-04-01T01:49:32;10.30;91.40
46139;DHT22;32398;49.112;8.598;2023-04-01T01:51:59;10.40;91.50
46139;DHT22;32398;49.112;8.598;2023-04-01T01:54:27;10.20;91.50
46139;DHT22;32398;49.112;8.598;2023-04-01T01:56:55;10.30;91.50
46139;DHT22;32398;49.112;8.598;2023-04-01T01:59:23;10.30;91.50
46139;DHT22;32398;49.112;8.598;2023-04-01T02:01:52;10.40;91.50
46139;DHT22;32398;49.112;8.598;2023-04-01T02:04:20;10.30;91.50
46139;DHT22;32398;49.112;8.598;2023-04-01T02:06:48;10.30;91.60
46139;DHT22;32398;49.112;8.598;2023-04-01T02:09:17;10.30;91.50
46139;DHT22;32398;49.112;8.598;2023-04-01T02:11:47;10.30;91.60
46139;DHT22;32398;49.112;8.598;2023-04-01T02:14:15;10.30;91.60
46139;DHT22;32398;49.112;8.598;2023-04-01T02:16:43;10.30;91.60
46139;DHT22;32398;49.112;8.598;2023-04-01T02:19:12;10.30;91.60
46139;DHT22;32398;49.112;8.598;2023-04-01T02:21:39;10.30;91.50
46139;DHT22;32398;49.112;8.598;2023-04-01T02:24:09;10.40;91.50
46139;DHT22;32398;49.112;8.598;2023-04-01T02:26:36;10.30;91.50
46139;DHT22;32398;49.112;8.598;2023-04-01T02:29:05;10.30;91.40
46139;DHT22;32398;49.112;8.598;2023-04-01T02:31:33;10.30;91.40
46139;DHT22;32398;49.112;8.598;2023-04-01T02:34:00;10.30;91.30
46139;DHT22;32398;49.112;8.598;2023-04-01T02:36:28;10.30;91.30
46139;DHT22;32398;49.112;8.598;2023-04-01T02:38:54;10.30;91.20
46139;DHT22;32398;49.112;8.598;2023-04-01T02:41:24;10.20;91.00
46139;DHT22;32398;49.112;8.598;2023-04-01T02:43:51;10.30;91.00
46139;DHT22;32398;49.112;8.598;2023-04-01T02:46:19;10.20;90.90
46139;DHT22;32398;49.112;8.598;2023-04-01T02:48:45;10.20;90.80
46139;DHT22;32398;49.112;8.598;2023-04-01T02:51:12;10.20;90.80
46139;DHT22;32398;49.112;8.598;2023-04-01T02:53:38;10.20;90.70
46139;DHT22;32398;49.112;8.598;2023-04-01T02:56:05;10.20;90.70
46139;DHT22;32398;49.112;8.598;2023-04-01T02:58:32;10.20;90.70
46139;DHT22;32398;49.112;8.598;2023-04-01T03:00:58;10.20;90.60
46139;DHT22;32398;49.112;8.598;2023-04-01T03:03:26;10.20;90.60
46139;DHT22;32398;49.112;8.598;2023-04-01T03:05:52;10.20;90.60
46139;DHT22;32398;49.112;8.598;2023-04-01T03:08:21;10.20;90.50
46139;DHT22;32398;49.112;8.598;2023-04-01T03:10:47;10.20;90.50
46139;DHT22;32398;49.112;8.598;2023-04-01T03:13:14;10.20;90.40
46139;DHT22;32398;49.112;8.598;2023-04-01T03:15:41;10.20;90.40
46139;DHT22;32398;49.112;8.598;2023-04-01T03:18:07;10.20;90.30
46139;DHT22;32398;49.112;8.598;2023-04-01T03:20:35;10.20;90.40
46139;DHT22;32398;49.112;8.598;2023-04-01T03:23:01;10.10;90.30
46139;DHT22;32398;49.112;8.598;2023-04-01T03:25:28;10.20;90.30
46139;DHT22;32398;49.112;8.598;2023-04-01T03:27:55;10.20;90.30
46139;DHT22;32398;49.112;8.598;2023-04-01T03:30:24;10.20;90.30
46139;DHT22;32398;49.112;8.598;2023-04-01T03:32:51;10.10;90.30
46139;DHT22;32398;49.112;8.598;2023-04-01T03:35:18;10.20;90.30
46139;DHT22;32398;49.112;8.598;2023-04-01T03:37:46;10.20;90.30
46139;DHT22;32398;49.112;8.598;2023-04-01T03:40:12;10.20;90.30
46139;DHT22;32398;49.112;8.598;2023-04-01T03:42:39;10.20;90.30
46139;DHT22;32398;49.112;8.598;2023-04-01T03:45:06;10.10;90.30
46139;DHT22;32398;49.112;8.598;2023-04-01T03:47:32;10.10;90.20
46139;DHT22;32398;49.112;8.598;2023-04-01T03:49:59;10.10;90.20
46139;DHT22;32398;49.112;8.598;2023-04-01T03:52:25;10.10;90.20
46139;DHT22;32398;49.112;8.598;2023-04-01T03:54:53;10.10;90.30
46139;DHT22;32398;49.112;8.598;2023-04-01T03:57:20;10.10;90.30
46139;DHT22;32398;49.112;8.598;2023-04-01T03:59:46;10.10;90.30
46139;DHT22;32398;49.112;8.598;2023-04-01T04:02:13;10.10;90.30
46139;DHT22;32398;49.112;8.598;2023-04-01T04:04:39;10.20;90.40
46139;DHT22;32398;49.112;8.598;2023-04-01T04:07:06;10.10;90.40
46139;DHT22;32398;49.112;8.598;2023-04-01T04:09:33;10.10;90.40
46139;DHT22;32398;49.112;8.598;2023-04-01T04:12:00;10.10;90.70
46139;DHT22;32398;49.112;8.598;2023-04-01T04:14:27;10.10;90.40
46139;DHT22;32398;49.112;8.598;2023-04-01T04:16:54;10.10;90.40
46139;DHT22;32398;49.112;8.598;2023-04-01T04:19:20;10.10;90.30
46139;DHT22;32398;49.112;8.598;2023-04-01T04:21:47;10.10;90.30
46139;DHT22;32398;49.112;8.598;2023-04-01T04:24:13;10.00;90.30
46139;DHT22;32398;49.112;8.598;2023-04-01T04:26:40;10.10;90.30
46139;DHT22;32398;49.112;8.598;2023-04-01T04:29:08;10.10;90.30
46139;DHT22;32398;49.112;8.598;2023-04-01T04:31:34;10.00;90.30
46139;DHT22;32398;49.112;8.598;2023-04-01T04:34:01;10.10;90.30
46139;DHT22;32398;49.112;8.598;2023-04-01T04:36:27;10.10;90.30
46139;DHT22;32398;49.112;8.598;2023-04-01T04:38:54;10.10;90.30
46139;DHT22;32398;49.112;8.598;2023-04-01T04:41:21;10.10;90.30
46139;DHT22;32398;49.112;8.598;2023-04-01T04:43:51;10.10;90.20
46139;DHT22;32398;49.112;8.598;2023-04-01T04:46:19;10.10;90.20
46139;DHT22;32398;49.112;8.598;2023-04-01T04:48:46;10.10;90.30
46139;DHT22;32398;49.112;8.598;2023-04-01T04:51:13;10.10;90.20
46139;DHT22;32398;49.112;8.598;2023-04-01T04:53:41;10.10;90.20
46139;DHT22;32398;49.112;8.598;2023-04-01T04:56:07;10.10;90.20
46139;DHT22;32398;49.112;8.598;2023-04-01T04:58:34;10.10;90.20
46139;DHT22;32398;49.112;8.598;2023-04-01T05:01:04;10.10;90.10
46139;DHT22;32398;49.112;8.598;2023-04-01T05:03:32;10.10;90.10
46139;DHT22;32398;49.112;8.598;2023-04-01T05:05:59;10.10;90.10
46139;DHT22;32398;49.112;8.598;2023-04-01T05:08:25;10.10;90.10
46139;DHT22;32398;49.112;8.598;2023-04-01T05:10:52;10.10;90.50
46139;DHT22;32398;49.112;8.598;2023-04-01T05:13:18;10.10;90.10
46139;DHT22;32398;49.112;8.598;2023-04-01T05:15:45;10.00;90.00
46139;DHT22;32398;49.112;8.598;2023-04-01T05:18:12;10.10;90.10
46139;DHT22;32398;49.112;8.598;2023-04-01T05:20:45;10.00;90.00
46139;DHT22;32398;49.112;8.598;2023-04-01T05:23:11;10.10;90.00
46139;DHT22;32398;49.112;8.598;2023-04-01T05:25:38;10.10;90.00
46139;DHT22;32398;49.112;8.598;2023-04-01T05:28:05;10.10;90.10
46139;DHT22;32398;49.112;8.598;2023-04-01T05:30:31;10.10;90.00
46139;DHT22;32398;49.112;8.598;2023-04-01T05:32:58;10.10;90.00
46139;DHT22;32398;49.112;8.598;2023-04-01T05:35:24;10.10;90.00
46139;DHT22;32398;49.112;8.598;2023-04-01T05:37:52;10.00;90.00
46139;DHT22;32398;49.112;8.598;2023-04-01T05:40:19;10.10;90.00
46139;DHT22;32398;49.112;8.598;2023-04-01T05:42:46;10.10;90.00
46139;DHT22;32398;49.112;8.598;2023-04-01T05:45:12;10.00;90.00
46139;DHT22;32398;49.112;8.598;2023-04-01T05:47:40;10.10;90.10
46139;DHT22;32398;49.112;8.598;2023-04-01T05:50:07;10.00;90.10
46139;DHT22;32398;49.112;8.598;2023-04-01T05:52:34;10.00;90.10
46139;DHT22;32398;49.112;8.598;2023-04-01T05:55:02;10.00;90.00
46139;DHT22;32398;49.112;8.598;2023-04-01T05:57:29;10.10;90.10
46139;DHT22;32398;49.112;8.598;2023-04-01T05:59:56;10.00;90.00
46139;DHT22;32398;49.112;8.598;2023-04-01T06:02:22;10.00;90.00
46139;DHT22;32398;49.112;8.598;2023-04-01T06:04:49;10.10;90.00
46139;DHT22;32398;49.112;8.598;2023-04-01T06:07:17;10.10;90.00
46139;DHT22;32398;49.112;8.598;2023-04-01T06:09:44;10.00;90.00
46139;DHT22;32398;49.112;8.598;2023-04-01T06:12:32;10.00;90.00
46139;DHT22;32398;49.112;8.598;2023-04-01T06:15:06;10.10;90.10
46139;DHT22;32398;49.112;8.598;2023-04-01T06:17:41;10.00;90.10
46139;DHT22;32398;49.112;8.598;2023-04-01T06:20:11;10.10;90.30
46139;DHT22;32398;49.112;8.598;2023-04-01T06:22:47;10.00;90.30
46139;DHT22;32398;49.112;8.598;2023-04-01T06:25:39;10.00;90.40
46139;DHT22;32398;49.112;8.598;2023-04-01T06:30:58;10.00;90.50
46139;DHT22;32398;49.112;8.598;2023-04-01T06:33:30;10.00;90.60
46139;DHT22;32398;49.112;8.598;2023-04-01T06:36:09;10.00;90.70
46139;DHT22;32398;49.112;8.598;2023-04-01T06:39:02;10.00;90.70
46139;DHT22;32398;49.112;8.598;2023-04-01T06:41:33;10.00;90.80
46139;DHT22;32398;49.112;8.598;2023-04-01T06:44:06;10.00;90.90
46139;DHT22;32398;49.112;8.598;2023-04-01T06:46:36;10.00;91.00
46139;DHT22;32398;49.112;8.598;2023-04-01T06:49:19;10.00;91.00
46139;DHT22;32398;49.112;8.598;2023-04-01T06:51:48;10.00;91.10
46139;DHT22;32398;49.112;8.598;2023-04-01T06:54:20;10.00;91.10
46139;DHT22;32398;49.112;8.598;2023-04-01T06:56:48;9.90;91.20
46139;DHT22;32398;49.112;8.598;2023-04-01T06:59:17;10.00;91.30
46139;DHT22;32398;49.112;8.598;2023-04-01T07:01:47;9.90;91.30
46139;DHT22;32398;49.112;8.598;2023-04-01T07:04:16;10.00;91.40
46139;DHT22;32398;49.112;8.598;2023-04-01T07:06:46;9.90;91.40
46139;DHT22;32398;49.112;8.598;2023-04-01T07:09:16;10.00;91.50
46139;DHT22;32398;49.112;8.598;2023-04-01T07:11:44;9.90;91.60
46139;DHT22;32398;49.112;8.598;2023-04-01T07:14:13;9.90;91.60
46139;DHT22;32398;49.112;8.598;2023-04-01T07:16:43;10.00;91.70
46139;DHT22;32398;49.112;8.598;2023-04-01T07:19:14;9.90;91.80
46139;DHT22;32398;49.112;8.598;2023-04-01T07:21:43;9.90;91.90
46139;DHT22;32398;49.112;8.598;2023-04-01T07:24:13;9.90;92.00
46139;DHT22;32398;49.112;8.598;2023-04-01T07:26:43;9.90;92.00
46139;DHT22;32398;49.112;8.598;2023-04-01T07:29:10;9.90;92.10
46139;DHT22;32398;49.112;8.598;2023-04-01T07:31:42;9.90;92.10
46139;DHT22;32398;49.112;8.598;2023-04-01T07:34:15;9.90;92.20
46139;DHT22;32398;49.112;8.598;2023-04-01T07:36:43;9.80;92.30
46139;DHT22;32398;49.112;8.598;2023-04-01T07:39:18;9.90;92.50
46139;DHT22;32398;49.112;8.598;2023-04-01T07:41:51;9.90;92.60
46139;DHT22;32398;49.112;8.598;2023-04-01T07:44:20;10.50;93.00
46139;DHT22;32398;49.112;8.598;2023-04-01T07:46:53;9.90;92.90
46139;DHT22;32398;49.112;8.598;2023-04-01T07:49:24;9.90;93.00
46139;DHT22;32398;49.112;8.598;2023-04-01T07:51:55;9.90;93.10
46139;DHT22;32398;49.112;8.598;2023-04-01T07:54:26;9.90;93.30
46139;DHT22;32398;49.112;8.598;2023-04-01T07:56:56;9.90;93.40
46139;DHT22;32398;49.112;8.598;2023-04-01T07:59:25;10.20;93.50
46139;DHT22;32398;49.112;8.598;2023-04-01T08:01:55;9.80;93.50
46139;DHT22;32398;49.112;8.598;2023-04-01T08:04:27;9.80;93.60
46139;DHT22;32398;49.112;8.598;2023-04-01T08:07:00;9.80;93.70
46139;DHT22;32398;49.112;8.598;2023-04-01T08:09:30;9.80;93.90
46139;DHT22;32398;49.112;8.598;2023-04-01T08:12:01;9.80;94.00
46139;DHT22;32398;49.112;8.598;2023-04-01T08:14:31;9.80;94.10
46139;DHT22;32398;49.112;8.598;2023-04-01T08:17:03;9.80;94.10
46139;DHT22;32398;49.112;8.598;2023-04-01T08:19:36;9.80;94.20
46139;DHT22;32398;49.112;8.598;2023-04-01T08:22:08;9.80;94.20
46139;DHT22;32398;49.112;8.598;2023-04-01T08:24:37;9.80;94.30
46139;DHT22;32398;49.112;8.598;2023-04-01T08:27:09;9.80;94.30
46139;DHT22;32398;49.112;8.598;2023-04-01T08:29:38;9.80;94.40
46139;DHT22;32398;49.112;8.598;2023-04-01T08:32:07;9.80;94.40
46139;DHT22;32398;49.112;8.598;2023-04-01T08:34:38;9.70;94.50
46139;DHT22;32398;49.112;8.598;2023-04-01T08:37:07;9.80;94.60
46139;DHT22;32398;49.112;8.598;2023-04-01T08:39:35;9.80;94.80
46139;DHT22;32398;49.112;8.598;2023-04-01T08:42:11;9.80;94.90
46139;DHT22;32398;49.112;8.598;2023-04-01T08:44:52;9.70;95.00
46139;DHT22;32398;49.112;8.598;2023-04-01T08:53:03;9.70;95.30
46139;DHT22;32398;49.112;8.598;2023-04-01T08:55:47;9.70;95.40
46139;DHT22;32398;49.112;8.598;2023-04-01T08:58:31;9.70;95.50
46139;DHT22;32398;49.112;8.598;2023-04-01T09:01:07;9.70;95.60
46139;DHT22;32398;49.112;8.598;2023-04-01T09:03:51;9.80;95.70
46139;DHT22;32398;49.112;8.598;2023-04-01T09:06:25;9.80;95.70
46139;DHT22;32398;49.112;8.598;2023-04-01T09:11:44;9.80;95.70
46139;DHT22;32398;49.112;8.598;2023-04-01T09:14:32;9.80;95.90
46139;DHT22;32398;49.112;8.598;2023-04-01T09:17:05;9.80;95.60
46139;DHT22;32398;49.112;8.598;2023-04-01T09:19:40;9.80;95.60
46139;DHT22;32398;49.112;8.598;2023-04-01T09:22:19;9.90;95.70
46139;DHT22;32398;49.112;8.598;2023-04-01T09:27:37;9.90;95.80
46139;DHT22;32398;49.112;8.598;2023-04-01T09:35:37;9.90;95.80
46139;DHT22;32398;49.112;8.598;2023-04-01T09:38:09;10.00;95.90
46139;DHT22;32398;49.112;8.598;2023-04-01T09:40:43;9.90;95.90
46139;DHT22;32398;49.112;8.598;2023-04-01T09:43:20;9.90;95.90
46139;DHT22;32398;49.112;8.598;2023-04-01T09:45:48;10.00;96.00
46139;DHT22;32398;49.112;8.598;2023-04-01T09:48:24;10.00;96.00
46139;DHT22;32398;49.112;8.598;2023-04-01T09:50:57;9.90;96.00
46139;DHT22;32398;49.112;8.598;2023-04-01T09:53:31;10.00;96.00
46139;DHT22;32398;49.112;8.598;2023-04-01T09:58:53;10.00;96.20
46139;DHT22;32398;49.112;8.598;2023-04-01T10:01:35;10.00;96.30
46139;DHT22;32398;49.112;8.598;2023-04-01T10:04:09;10.00;96.40
46139;DHT22;32398;49.112;8.598;2023-04-01T10:09:31;10.00;96.70
46139;DHT22;32398;49.112;8.598;2023-04-01T10:12:14;10.00;96.40
46139;DHT22;32398;49.112;8.598;2023-04-01T10:17:41;10.10;96.50
46139;DHT22;32398;49.112;8.598;2023-04-01T10:20:21;10.00;96.50
46139;DHT22;32398;49.112;8.598;2023-04-01T10:23:13;10.00;96.40
46139;DHT22;32398;49.112;8.598;2023-04-01T10:28:36;10.10;96.40
46139;DHT22;32398;49.112;8.598;2023-04-01T10:31:14;10.10;96.30
46139;DHT22;32398;49.112;8.598;2023-04-01T10:36:45;10.10;96.40
46139;DHT22;32398;49.112;8.598;2023-04-01T10:39:27;10.20;96.40
46139;DHT22;32398;49.112;8.598;2023-04-01T10:42:02;10.20;96.40
46139;DHT22;32398;49.112;8.598;2023-04-01T10:44:45;10.20;96.40
46139;DHT22;32398;49.112;8.598;2023-04-01T10:47:48;10.20;96.40
46139;DHT22;32398;49.112;8.598;2023-04-01T10:50:23;10.20;96.40
46139;DHT22;32398;49.112;8.598;2023-04-01T10:55:40;10.20;96.40
46139;DHT22;32398;49.112;8.598;2023-04-01T10:58:20;10.20;96.40
46139;DHT22;32398;49.112;8.598;2023-04-01T11:00:57;10.20;96.50
46139;DHT22;32398;49.112;8.598;2023-04-01T11:03:46;10.20;96.50
46139;DHT22;32398;49.112;8.598;2023-04-01T11:09:19;10.20;96.70
46139;DHT22;32398;49.112;8.598;2023-04-01T11:12:10;10.20;96.70
46139;DHT22;32398;49.112;8.598;2023-04-01T11:15:04;10.20;96.90
46139;DHT22;32398;49.112;8.598;2023-04-01T11:20:37;10.30;96.90
46139;DHT22;32398;49.112;8.598;2023-04-01T11:23:15;10.30;96.90
46139;DHT22;32398;49.112;8.598;2023-04-01T11:25:48;10.20;96.90
46139;DHT22;32398;49.112;8.598;2023-04-01T11:28:29;10.30;96.90
46139;DHT22;32398;49.112;8.598;2023-04-01T11:31:08;10.20;96.90
46139;DHT22;32398;49.112;8.598;2023-04-01T11:33:38;10.20;96.90
46139;DHT22;32398;49.112;8.598;2023-04-01T11:36:09;10.30;96.90
46139;DHT22;32398;49.112;8.598;2023-04-01T11:38:42;10.30;97.00
46139;DHT22;32398;49.112;8.598;2023-04-01T11:41:15;10.20;97.00
46139;DHT22;32398;49.112;8.598;2023-04-01T11:43:49;10.20;97.10
46139;DHT22;32398;49.112;8.598;2023-04-01T11:46:23;10.30;97.20
46139;DHT22;32398;49.112;8.598;2023-04-01T11:48:54;10.30;97.20
46139;DHT22;32398;49.112;8.598;2023-04-01T11:51:29;10.30;97.30
46139;DHT22;32398;49.112;8.598;2023-04-01T11:53:59;10.30;97.40
46139;DHT22;32398;49.112;8.598;2023-04-01T11:56:34;10.30;97.40
46139;DHT22;32398;49.112;8.598;2023-04-01T11:59:27;10.30;97.50
46139;DHT22;32398;49.112;8.598;2023-04-01T12:01:58;10.20;97.50
46139;DHT22;32398;49.112;8.598;2023-04-01T12:04:36;10.30;97.70
46139;DHT22;32398;49.112;8.598;2023-04-01T12:07:11;10.30;97.70
46139;DHT22;32398;49.112;8.598;2023-04-01T12:09:42;10.30;97.80
46139;DHT22;32398;49.112;8.598;2023-04-01T12:12:16;10.30;97.80
46139;DHT22;32398;49.112;8.598;2023-04-01T12:14:47;10.30;97.80
46139;DHT22;32398;49.112;8.598;2023-04-01T12:17:25;10.30;97.90
46139;DHT22;32398;49.112;8.598;2023-04-01T12:19:54;10.20;97.90
46139;DHT22;32398;49.112;8.598;2023-04-01T12:22:33;10.30;98.00
46139;DHT22;32398;49.112;8.598;2023-04-01T12:25:06;10.30;98.30
46139;DHT22;32398;49.112;8.598;2023-04-01T12:27:39;10.30;98.00
46139;DHT22;32398;49.112;8.598;2023-04-01T12:30:24;10.30;98.00
46139;DHT22;32398;49.112;8.598;2023-04-01T12:32:55;10.30;98.00
46139;DHT22;32398;49.112;8.598;2023-04-01T12:35:27;10.30;98.00
46139;DHT22;32398;49.112;8.598;2023-04-01T12:37:59;10.30;98.00
46139;DHT22;32398;49.112;8.598;2023-04-01T12:40:35;10.30;98.00
46139;DHT22;32398;49.112;8.598;2023-04-01T12:46:05;10.40;97.90
46139;DHT22;32398;49.112;8.598;2023-04-01T12:56:58;10.40;97.90
46139;DHT22;32398;49.112;8.598;2023-04-01T12:59:35;10.40;97.90
46139;DHT22;32398;49.112;8.598;2023-04-01T13:02:09;10.40;97.90
46139;DHT22;32398;49.112;8.598;2023-04-01T13:04:43;10.40;97.90
46139;DHT22;32398;49.112;8.598;2023-04-01T13:07:26;10.40;98.20
46139;DHT22;32398;49.112;8.598;2023-04-01T13:10:01;10.40;97.90
46139;DHT22;32398;49.112;8.598;2023-04-01T13:12:36;10.40;97.80
46139;DHT22;32398;49.112;8.598;2023-04-01T13:17:52;10.40;97.80
46139;DHT22;32398;49.112;8.598;2023-04-01T13:20:21;10.50;97.80
46139;DHT22;32398;49.112;8.598;2023-04-01T13:22:52;10.50;97.80
46139;DHT22;32398;49.112;8.598;2023-04-01T13:25:24;10.40;97.70
46139;DHT22;32398;49.112;8.598;2023-04-01T13:27:55;10.40;97.70
46139;DHT22;32398;49.112;8.598;2023-04-01T13:30:24;10.40;97.80
46139;DHT22;32398;49.112;8.598;2023-04-01T13:32:56;10.40;97.70
46139;DHT22;32398;49.112;8.598;2023-04-01T13:35:26;10.40;97.80
46139;DHT22;32398;49.112;8.598;2023-04-01T13:37:59;10.50;97.80
46139;DHT22;32398;49.112;8.598;2023-04-01T13:40:33;10.40;97.80
46139;DHT22;32398;49.112;8.598;2023-04-01T13:43:04;10.50;97.80
46139;DHT22;32398;49.112;8.598;2023-04-01T13:45:33;10.40;97.70
46139;DHT22;32398;49.112;8.598;2023-04-01T13:48:18;10.40;97.70
46139;DHT22;32398;49.112;8.598;2023-04-01T13:50:54;10.40;97.60
46139;DHT22;32398;49.112;8.598;2023-04-01T13:53:27;10.40;97.60
46139;DHT22;32398;49.112;8.598;2023-04-01T13:55:56;10.40;97.50
46139;DHT22;32398;49.112;8.598;2023-04-01T14:01:10;10.40;97.40
46139;DHT22;32398;49.112;8.598;2023-04-01T14:03:47;10.40;97.40
46139;DHT22;32398;49.112;8.598;2023-04-01T14:06:17;10.40;97.30
46139;DHT22;32398;49.112;8.598;2023-04-01T14:08:51;10.50;97.20
46139;DHT22;32398;49.112;8.598;2023-04-01T14:11:24;10.50;97.20
46139;DHT22;32398;49.112;8.598;2023-04-01T14:13:56;10.40;97.10
46139;DHT22;32398;49.112;8.598;2023-04-01T14:16:40;10.50;97.00
46139;DHT22;32398;49.112;8.598;2023-04-01T14:19:15;10.50;97.00
46139;DHT22;32398;49.112;8.598;2023-04-01T14:21:51;10.50;97.00
46139;DHT22;32398;49.112;8.598;2023-04-01T14:24:23;10.50;97.00
46139;DHT22;32398;49.112;8.598;2023-04-01T14:27:09;10.50;97.00
46139;DHT22;32398;49.112;8.598;2023-04-01T14:29:40;10.50;97.00
46139;DHT22;32398;49.112;8.598;2023-04-01T14:32:11;10.50;97.00
46139;DHT22;32398;49.112;8.598;2023-04-01T14:34:53;10.50;97.00
46139;DHT22;32398;49.112;8.598;2023-04-01T14:37:29;10.50;97.00
46139;DHT22;32398;49.112;8.598;2023-04-01T14:40:05;10.50;97.00
46139;DHT22;32398;49.112;8.598;2023-04-01T14:42:52;10.50;97.00
46139;DHT22;32398;49.112;8.598;2023-04-01T14:45:29;10.50;97.00
46139;DHT22;32398;49.112;8.598;2023-04-01T14:47:59;10.50;97.00
46139;DHT22;32398;49.112;8.598;2023-04-01T14:50:28;10.50;97.10
46139;DHT22;32398;49.112;8.598;2023-04-01T14:52:57;10.50;97.10
46139;DHT22;32398;49.112;8.598;2023-04-01T14:55:33;10.50;97.10
46139;DHT22;32398;49.112;8.598;2023-04-01T14:58:04;10.50;97.20
46139;DHT22;32398;49.112;8.598;2023-04-01T15:00:40;10.50;97.20
46139;DHT22;32398;49.112;8.598;2023-04-01T15:03:08;10.50;97.30
46139;DHT22;32398;49.112;8.598;2023-04-01T15:05:42;10.50;97.40
46139;DHT22;32398;49.112;8.598;2023-04-01T15:08:15;10.40;97.30
46139;DHT22;32398;49.112;8.598;2023-04-01T15:13:31;10.40;97.40
46139;DHT22;32398;49.112;8.598;2023-04-01T15:16:04;10.40;97.40
46139;DHT22;32398;49.112;8.598;2023-04-01T15:18:34;10.50;97.50
46139;DHT22;32398;49.112;8.598;2023-04-01T15:23:57;10.40;97.40
46139;DHT22;32398;49.112;8.598;2023-04-01T15:29:16;10.50;97.50
46139;DHT22;32398;49.112;8.598;2023-04-01T15:31:48;10.50;97.50
46139;DHT22;32398;49.112;8.598;2023-04-01T15:34:21;10.50;97.50
46139;DHT22;32398;49.112;8.598;2023-04-01T15:36:53;10.50;97.50
46139;DHT22;32398;49.112;8.598;2023-04-01T15:39:24;10.50;97.60
46139;DHT22;32398;49.112;8.598;2023-04-01T15:42:04;10.50;97.60
46139;DHT22;32398;49.112;8.598;2023-04-01T15:44:40;10.50;97.60
46139;DHT22;32398;49.112;8.598;2023-04-01T15:47:17;10.50;97.60
46139;DHT22;32398;49.112;8.598;2023-04-01T15:49:55;10.50;97.60
46139;DHT22;32398;49.112;8.598;2023-04-01T15:52:22;10.50;97.50
46139;DHT22;32398;49.112;8.598;2023-04-01T15:57:38;10.50;97.40
46139;DHT22;32398;49.112;8.598;2023-04-01T16:02:53;10.50;97.40
46139;DHT22;32398;49.112;8.598;2023-04-01T16:05:28;10.60;97.40
46139;DHT22;32398;49.112;8.598;2023-04-01T16:08:00;10.60;97.30
46139;DHT22;32398;49.112;8.598;2023-04-01T16:10:38;10.50;97.30
46139;DHT22;32398;49.112;8.598;2023-04-01T16:13:19;10.60;97.30
46139;DHT22;32398;49.112;8.598;2023-04-01T16:15:50;10.60;97.30
46139;DHT22;32398;49.112;8.598;2023-04-01T16:18:24;10.60;97.20
46139;DHT22;32398;49.112;8.598;2023-04-01T16:20:53;10.60;97.20
46139;DHT22;32398;49.112;8.598;2023-04-01T16:23:22;10.50;97.20
46139;DHT22;32398;49.112;8.598;2023-04-01T16:25:52;10.50;97.20
46139;DHT22;32398;49.112;8.598;2023-04-01T16:28:23;10.50;97.10
46139;DHT22;32398;49.112;8.598;2023-04-01T16:30:55;10.50;97.10
46139;DHT22;32398;49.112;8.598;2023-04-01T16:33:23;10.60;97.10
46139;DHT22;32398;49.112;8.598;2023-04-01T16:35:55;10.50;97.00
46139;DHT22;32398;49.112;8.598;2023-04-01T16:38:24;10.50;97.00
46139;DHT22;32398;49.112;8.598;2023-04-01T16:40:58;10.50;97.00
46139;DHT22;32398;49.112;8.598;2023-04-01T16:43:30;10.60;97.00
46139;DHT22;32398;49.112;8.598;2023-04-01T16:48:54;10.50;96.90
46139;DHT22;32398;49.112;8.598;2023-04-01T16:51:25;10.50;96.80
46139;DHT22;32398;49.112;8.598;2023-04-01T16:53:53;10.50;96.80
46139;DHT22;32398;49.112;8.598;2023-04-01T16:56:35;10.60;96.80
46139;DHT22;32398;49.112;8.598;2023-04-01T16:59:06;10.50;97.10
46139;DHT22;32398;49.112;8.598;2023-04-01T17:01:38;10.60;96.80
46139;DHT22;32398;49.112;8.598;2023-04-01T17:04:07;10.50;96.70
46139;DHT22;32398;49.112;8.598;2023-04-01T17:06:38;10.50;96.70
46139;DHT22;32398;49.112;8.598;2023-04-01T17:09:11;10.50;96.60
46139;DHT22;32398;49.112;8.598;2023-04-01T17:11:42;10.60;96.60
46139;DHT22;32398;49.112;8.598;2023-04-01T17:14:16;10.50;96.50
46139;DHT22;32398;49.112;8.598;2023-04-01T17:16:52;10.50;96.50
46139;DHT22;32398;49.112;8.598;2023-04-01T17:19:24;10.50;96.50
46139;DHT22;32398;49.112;8.598;2023-04-01T17:21:56;10.50;96.50